createdAt,value
2022-12-11T00:00:39.141Z,94814.22
2022-12-11T00:05:42.507Z,94822.59
2022-12-11T00:10:45.181Z,94828.66
2022-12-11T00:15:47.792Z,94825.44
2022-12-11T00:20:50.545Z,94828.06
2022-12-11T00:25:53.317Z,94828.28
2022-12-11T00:30:56.408Z,94827.09
2022-12-11T00:35:59.136Z,94825.13
2022-12-11T00:41:01.774Z,94820.34
2022-12-11T00:46:04.404Z,94827.44
2022-12-11T00:51:07.050Z,94822.88
2022-12-11T00:56:09.705Z,94821.69
2022-12-11T01:01:14.627Z,94822.44
2022-12-11T01:06:17.331Z,94829.28
2022-12-11T01:11:26.483Z,94837.81
2022-12-11T01:16:29.213Z,94838.38
2022-12-11T01:21:32.062Z,94841.75
2022-12-11T01:26:35.128Z,94851.06
2022-12-11T01:31:39.545Z,94854.50
2022-12-11T01:36:42.223Z,94860.75
2022-12-11T01:41:44.924Z,94867.56
2022-12-11T01:46:47.678Z,94872.03
2022-12-11T01:51:50.393Z,94867.97
2022-12-11T01:56:54.258Z,94869.16
2022-12-11T02:01:56.964Z,94869.16
2022-12-11T02:07:00.074Z,94864.66
2022-12-11T02:12:02.831Z,94861.94
2022-12-11T02:17:05.453Z,94856.41
2022-12-11T02:22:08.157Z,94845.47
2022-12-11T02:27:10.995Z,94846.06
2022-12-11T02:32:13.679Z,94856.34
2022-12-11T02:37:16.405Z,94847.59
2022-12-11T02:42:19.189Z,94851.25
2022-12-11T02:47:21.991Z,94848.84
2022-12-11T02:52:24.712Z,94851.31
2022-12-11T02:57:27.501Z,94852.56
2022-12-11T03:02:30.744Z,94854.22
2022-12-11T03:07:33.354Z,94860.75
2022-12-11T03:12:36.000Z,94859.16
2022-12-11T03:17:38.633Z,94863.63
2022-12-11T03:22:41.540Z,94859.31
2022-12-11T03:27:44.333Z,94865.88
2022-12-11T03:32:47.157Z,94870.50
2022-12-11T03:37:49.787Z,94875.56
2022-12-11T03:42:52.510Z,94880.59
2022-12-11T03:47:55.866Z,94884.63
2022-12-11T03:52:59.050Z,94865.88
2022-12-11T03:58:01.792Z,94876.59
2022-12-11T04:03:14.390Z,94873.78
2022-12-11T04:08:17.437Z,94872.91
2022-12-11T04:13:20.195Z,94869.31
2022-12-11T04:18:40.433Z,94868.94
2022-12-11T04:24:00.571Z,94866.06
2022-12-11T04:29:03.715Z,94870.19
2022-12-11T04:34:06.443Z,94868.09
2022-12-11T04:39:10.475Z,94862.03
2022-12-11T04:44:13.509Z,94864.78
2022-12-11T04:49:16.414Z,94861.94
2022-12-11T04:54:19.382Z,94854.28
2022-12-11T04:59:22.079Z,94866.00
2022-12-11T05:04:24.675Z,94859.31
2022-12-11T05:09:27.324Z,94849.81
2022-12-11T05:14:31.972Z,94854.28
2022-12-11T05:19:44.561Z,94837.91
2022-12-11T05:24:50.765Z,94847.19
2022-12-11T05:29:59.255Z,94843.00
2022-12-11T05:35:02.785Z,94832.88
2022-12-11T05:40:06.282Z,94846.03
2022-12-11T05:45:09.940Z,94842.78
2022-12-11T05:50:13.013Z,94837.75
2022-12-11T05:55:15.710Z,94843.25
2022-12-11T06:00:18.469Z,94842.22
2022-12-11T06:05:21.101Z,94841.41
2022-12-11T06:10:23.763Z,94836.50
2022-12-11T06:15:26.384Z,94833.63
2022-12-11T06:20:31.262Z,94837.06
2022-12-11T06:25:33.971Z,94840.09
2022-12-11T06:30:38.658Z,94831.19
2022-12-11T06:35:42.667Z,94838.47
2022-12-11T06:40:45.564Z,94841.47
2022-12-11T06:45:48.246Z,94840.41
2022-12-11T06:50:50.954Z,94844.13
2022-12-11T06:55:54.124Z,94844.66
2022-12-11T07:00:56.884Z,94830.47
2022-12-11T07:05:59.922Z,94835.50
2022-12-11T07:11:02.598Z,94841.16
2022-12-11T07:16:10.490Z,94851.19
2022-12-11T07:21:17.202Z,94853.19
2022-12-11T07:26:20.063Z,94858.00
2022-12-11T07:31:22.990Z,94862.81
2022-12-11T07:36:25.725Z,94863.03
2022-12-11T07:41:28.810Z,94866.00
2022-12-11T07:46:37.012Z,94864.25
2022-12-11T07:51:40.185Z,94862.34
2022-12-11T07:56:44.064Z,94865.97
2022-12-11T08:01:46.872Z,94865.25
2022-12-11T08:06:49.473Z,94864.03
2022-12-11T08:11:52.251Z,94865.28
2022-12-11T08:16:55.721Z,94863.38
2022-12-11T08:21:58.430Z,94861.94
2022-12-11T08:27:01.034Z,94855.72
2022-12-11T08:32:08.992Z,94865.28
2022-12-11T08:37:14.682Z,94875.13
2022-12-11T08:42:27.351Z,94872.09
2022-12-11T08:47:30.119Z,94879.28
2022-12-11T08:52:32.792Z,94890.41
2022-12-11T08:57:35.420Z,94887.91
2022-12-11T09:02:38.203Z,94882.06
2022-12-11T09:07:40.914Z,94877.25
2022-12-11T09:12:43.993Z,94883.97
2022-12-11T09:17:46.625Z,94876.53
2022-12-11T09:22:58.543Z,94875.59
2022-12-11T09:28:01.428Z,94874.41
2022-12-11T09:33:04.499Z,94872.66
2022-12-11T09:38:07.156Z,94866.75
2022-12-11T09:43:09.869Z,94871.81
2022-12-11T09:48:12.465Z,94866.03
2022-12-11T09:53:15.792Z,94856.81
2022-12-11T09:58:18.475Z,94860.97
2022-12-11T10:03:21.061Z,94854.16
2022-12-11T10:08:23.876Z,94851.69
2022-12-11T10:13:29.832Z,94852.44
2022-12-11T10:18:32.528Z,94844.94
2022-12-11T10:23:35.732Z,94836.88
2022-12-11T10:28:38.522Z,94827.91
2022-12-11T10:33:41.130Z,94824.16
2022-12-11T10:38:43.726Z,94823.56
2022-12-11T10:43:47.138Z,94825.00
2022-12-11T10:48:49.917Z,94813.19
2022-12-11T10:53:52.690Z,94819.31
2022-12-11T10:58:55.507Z,94814.81
2022-12-11T11:03:58.109Z,94801.69
2022-12-11T11:09:00.800Z,94797.44
2022-12-11T11:14:03.412Z,94788.69
2022-12-11T11:19:06.086Z,94779.31
2022-12-11T11:24:08.724Z,94772.16
2022-12-11T11:29:21.667Z,94759.38
2022-12-11T11:34:26.171Z,94757.84
2022-12-11T11:39:28.999Z,94750.69
2022-12-11T11:44:32.158Z,94752.03
2022-12-11T11:49:36.075Z,94747.25
2022-12-11T11:54:39.181Z,94751.06
2022-12-11T11:59:42.358Z,94746.31
2022-12-11T12:04:45.451Z,94737.44
2022-12-11T12:09:48.326Z,94743.53
2022-12-11T12:14:52.679Z,94737.06
2022-12-11T12:19:55.627Z,94738.97
2022-12-11T12:24:58.326Z,94724.34
2022-12-11T12:30:01.165Z,94724.09
2022-12-11T12:35:03.793Z,94735.69
2022-12-11T12:40:06.683Z,94732.25
2022-12-11T12:45:10.111Z,94725.06
2022-12-11T12:50:13.608Z,94723.13
2022-12-11T12:55:18.064Z,94717.06
2022-12-11T13:00:20.759Z,94720.84
2022-12-11T13:05:23.459Z,94718.16
2022-12-11T13:10:26.081Z,94714.56
2022-12-11T13:15:29.160Z,94725.22
2022-12-11T13:20:31.927Z,94722.91
2022-12-11T13:25:41.506Z,94713.66
2022-12-11T13:30:44.569Z,94721.22
2022-12-11T13:35:47.831Z,94724.38
2022-12-11T13:40:50.629Z,94732.84
2022-12-11T13:45:54.025Z,94727.22
2022-12-11T13:50:57.082Z,94728.31
2022-12-11T13:55:59.926Z,94718.94
2022-12-11T14:01:02.876Z,94725.69
2022-12-11T14:06:05.628Z,94727.34
2022-12-11T14:11:08.264Z,94736.47
2022-12-11T14:16:11.426Z,94731.75
2022-12-11T14:21:14.279Z,94736.47
2022-12-11T14:26:16.973Z,94729.06
2022-12-11T14:31:19.719Z,94737.63
2022-12-11T14:36:22.435Z,94744.41
2022-12-11T14:41:25.015Z,94743.16
2022-12-11T14:46:37.589Z,94749.59
2022-12-11T14:51:40.894Z,94746.34
2022-12-11T14:56:43.493Z,94752.41
2022-12-11T15:01:46.361Z,94761.34
2022-12-11T15:06:50.277Z,94753.72
2022-12-11T15:11:52.973Z,94755.16
2022-12-11T15:16:55.764Z,94756.13
2022-12-11T15:21:58.360Z,94755.31
2022-12-11T15:27:01.817Z,94750.41
2022-12-11T15:32:09.508Z,94750.75
2022-12-11T15:37:12.142Z,94745.03
2022-12-11T15:42:14.889Z,94758.78
2022-12-11T15:47:17.672Z,94759.34
2022-12-11T15:52:20.303Z,94753.19
2022-12-11T15:57:22.939Z,94761.28
2022-12-11T16:02:27.008Z,94764.13
2022-12-11T16:07:29.746Z,94769.00
2022-12-11T16:12:32.413Z,94771.84
2022-12-11T16:17:36.050Z,94782.00
2022-12-11T16:22:39.080Z,94774.75
2022-12-11T16:27:41.671Z,94768.63
2022-12-11T16:32:44.287Z,94778.31
2022-12-11T16:37:46.953Z,94780.72
2022-12-11T16:42:59.657Z,94788.75
2022-12-11T16:48:02.384Z,94785.13
2022-12-11T16:53:04.986Z,94791.63
2022-12-11T16:58:08.081Z,94796.00
2022-12-11T17:03:10.781Z,94789.00
2022-12-11T17:08:13.509Z,94790.16
2022-12-11T17:13:16.202Z,94789.00
2022-12-11T17:18:18.833Z,94785.75
2022-12-11T17:23:21.844Z,94785.34
2022-12-11T17:28:24.544Z,94785.91
2022-12-11T17:33:27.131Z,94785.53
2022-12-11T17:38:29.825Z,94786.31
2022-12-11T17:43:32.418Z,94791.13
2022-12-11T17:48:39.687Z,94791.97
2022-12-11T17:53:42.305Z,94794.25
2022-12-11T17:58:44.916Z,94795.91
2022-12-11T18:03:47.637Z,94802.53
2022-12-11T18:08:50.444Z,94801.13
2022-12-11T18:13:53.100Z,94804.06
2022-12-11T18:18:56.435Z,94809.41
2022-12-11T18:23:59.148Z,94807.81
2022-12-11T18:29:01.852Z,94801.19
2022-12-11T18:34:06.004Z,94809.66
2022-12-11T18:39:08.728Z,94812.72
2022-12-11T18:44:11.623Z,94815.94
2022-12-11T18:49:15.412Z,94815.34
2022-12-11T18:54:18.700Z,94822.41
2022-12-11T18:59:21.476Z,94819.63
2022-12-11T19:04:24.743Z,94824.69
2022-12-11T19:09:27.661Z,94831.31
2022-12-11T19:14:35.659Z,94828.66
2022-12-11T19:19:38.385Z,94832.13
2022-12-11T19:24:41.059Z,94828.63
2022-12-11T19:29:43.838Z,94833.66
2022-12-11T19:34:47.128Z,94831.78
2022-12-11T19:39:50.421Z,94819.31
2022-12-11T19:44:56.061Z,94828.25
2022-12-11T19:49:58.916Z,94829.09
2022-12-11T19:55:01.767Z,94837.81
2022-12-11T20:00:05.202Z,94837.22
2022-12-11T20:05:08.567Z,94840.81
2022-12-11T20:10:11.483Z,94834.66
2022-12-11T20:15:16.731Z,94836.63
2022-12-11T20:20:19.588Z,94836.00
2022-12-11T20:25:22.431Z,94833.72
2022-12-11T20:30:25.924Z,94825.44
2022-12-11T20:35:28.651Z,94824.00
2022-12-11T20:40:31.460Z,94824.00
2022-12-11T20:45:34.240Z,94829.69
2022-12-11T20:50:36.996Z,94827.25
2022-12-11T20:55:39.724Z,94823.63
2022-12-11T21:00:42.344Z,94832.13
2022-12-11T21:05:45.450Z,94832.94
2022-12-11T21:10:48.108Z,94836.97
2022-12-11T21:15:52.729Z,94832.56
2022-12-11T21:20:55.524Z,94825.22
2022-12-11T21:25:58.294Z,94826.47
2022-12-11T21:31:01.445Z,94820.38
2022-12-11T21:36:04.056Z,94824.81
2022-12-11T21:41:06.841Z,94817.16
2022-12-11T21:46:10.034Z,94819.25
2022-12-11T21:51:13.147Z,94824.94
2022-12-11T21:56:15.920Z,94817.88
2022-12-11T22:01:18.826Z,94817.06
2022-12-11T22:06:21.582Z,94819.09
2022-12-11T22:11:24.647Z,94815.84
2022-12-11T22:16:27.534Z,94813.81
2022-12-11T22:21:30.414Z,94817.94
2022-12-11T22:26:33.138Z,94818.91
2022-12-11T22:31:36.736Z,94821.88
2022-12-11T22:36:39.461Z,94822.66
2022-12-11T22:41:43.244Z,94820.09
2022-12-11T22:46:49.968Z,94819.97
2022-12-11T22:51:53.343Z,94819.41
2022-12-11T22:56:56.034Z,94829.50
2022-12-11T23:01:58.897Z,94830.31
2022-12-11T23:07:01.672Z,94825.28
2022-12-11T23:12:04.470Z,94830.69
2022-12-11T23:17:07.613Z,94822.25
2022-12-11T23:22:10.376Z,94827.84
2022-12-11T23:27:13.041Z,94825.47
2022-12-11T23:32:15.755Z,94825.66
2022-12-11T23:37:18.602Z,94823.88
2022-12-11T23:42:21.664Z,94822.66
2022-12-11T23:47:24.648Z,94830.31
2022-12-11T23:52:27.646Z,94827.31
2022-12-11T23:57:30.553Z,94835.41
